createdAt,value
2023-04-25T00:00:20.091Z,163.54
2023-04-25T00:01:20.098Z,162.90
2023-04-25T00:02:20.204Z,162.63
2023-04-25T00:03:20.323Z,162.46
2023-04-25T00:04:20.434Z,162.11
2023-04-25T00:05:20.385Z,159.50
2023-04-25T00:06:20.274Z,160.72
2023-04-25T00:07:20.346Z,161.48
2023-04-25T00:08:20.382Z,161.09
2023-04-25T00:09:20.411Z,160.11
2023-04-25T00:10:20.489Z,159.91
2023-04-25T00:11:20.500Z,159.04
2023-04-25T00:12:20.562Z,159.07
2023-04-25T00:13:20.624Z,160.45
2023-04-25T00:14:20.655Z,159.46
2023-04-25T00:15:20.753Z,158.17
2023-04-25T00:16:20.814Z,159.14
2023-04-25T00:17:20.874Z,159.58
2023-04-25T00:18:20.909Z,158.60
2023-04-25T00:19:20.957Z,158.58
2023-04-25T00:20:21.030Z,157.34
2023-04-25T00:21:21.065Z,155.81
2023-04-25T00:22:21.068Z,155.99
2023-04-25T00:23:21.050Z,156.20
2023-04-25T00:24:21.088Z,156.71
2023-04-25T00:25:21.065Z,156.09
2023-04-25T00:26:21.052Z,158.13
2023-04-25T00:27:21.046Z,156.35
2023-04-25T00:28:21.040Z,155.49
2023-04-25T00:29:21.036Z,155.18
2023-04-25T00:30:21.034Z,155.77
2023-04-25T00:31:21.112Z,157.81
2023-04-25T00:32:21.065Z,156.30
2023-04-25T00:33:21.103Z,154.05
2023-04-25T00:34:21.126Z,154.17
2023-04-25T00:35:21.156Z,156.12
2023-04-25T00:36:21.155Z,156.23
2023-04-25T00:37:21.134Z,156.21
2023-04-25T00:38:21.134Z,155.31
2023-04-25T00:39:21.118Z,154.50
2023-04-25T00:40:21.116Z,153.63
2023-04-25T00:41:21.109Z,154.18
2023-04-25T00:42:21.095Z,151.97
2023-04-25T00:43:21.105Z,151.91
2023-04-25T00:44:21.095Z,151.04
2023-04-25T00:45:21.091Z,152.02
2023-04-25T00:46:21.177Z,149.94
2023-04-25T00:47:21.163Z,150.92
2023-04-25T00:48:21.130Z,151.59
2023-04-25T00:49:21.165Z,152.33
2023-04-25T00:50:21.212Z,153.11
2023-04-25T00:51:21.261Z,150.93
2023-04-25T00:52:21.269Z,149.19
2023-04-25T00:53:21.315Z,150.25
2023-04-25T00:54:21.377Z,151.70
2023-04-25T00:55:21.460Z,148.14
2023-04-25T00:56:21.506Z,148.47
2023-04-25T00:57:21.588Z,148.14
2023-04-25T00:58:21.647Z,149.85
2023-04-25T00:59:21.711Z,150.06
2023-04-25T01:00:21.779Z,150.06
2023-04-25T01:01:21.848Z,149.37
2023-04-25T01:02:22.013Z,149.53
2023-04-25T01:03:22.117Z,148.18
2023-04-25T01:04:22.094Z,146.55
2023-04-25T01:05:22.028Z,147.01
2023-04-25T01:06:22.104Z,146.61
2023-04-25T01:07:22.157Z,145.23
2023-04-25T01:08:22.212Z,145.66
2023-04-25T01:09:22.268Z,147.31
2023-04-25T01:10:22.327Z,149.54
2023-04-25T01:11:22.409Z,147.25
2023-04-25T01:12:22.471Z,145.94
2023-04-25T01:13:22.500Z,145.89
2023-04-25T01:14:22.575Z,144.48
2023-04-25T01:15:22.657Z,145.72
2023-04-25T01:16:22.780Z,143.51
2023-04-25T01:17:22.786Z,144.04
2023-04-25T01:18:22.859Z,145.12
2023-04-25T01:19:22.911Z,144.01
2023-04-25T01:20:22.995Z,145.13
2023-04-25T01:21:23.059Z,143.25
2023-04-25T01:22:23.117Z,142.40
2023-04-25T01:23:23.174Z,142.43
2023-04-25T01:24:23.216Z,143.81
2023-04-25T01:25:23.277Z,142.18
2023-04-25T01:26:23.346Z,144.01
2023-04-25T01:27:23.399Z,143.60
2023-04-25T01:28:23.474Z,142.22
2023-04-25T01:29:23.524Z,142.40
2023-04-25T01:30:23.584Z,141.63
2023-04-25T01:31:23.693Z,142.24
2023-04-25T01:32:23.751Z,138.65
2023-04-25T01:33:23.844Z,139.87
2023-04-25T01:34:23.831Z,141.68
2023-04-25T01:35:23.898Z,140.14
2023-04-25T01:36:23.962Z,140.32
2023-04-25T01:37:24.010Z,136.96
2023-04-25T01:38:24.080Z,138.91
2023-04-25T01:39:24.142Z,137.49
2023-04-25T01:40:24.231Z,139.89
2023-04-25T01:41:24.474Z,140.52
2023-04-25T01:42:24.345Z,140.91
2023-04-25T01:43:24.385Z,140.61
2023-04-25T01:44:24.402Z,137.29
2023-04-25T01:45:24.466Z,140.02
2023-04-25T01:46:24.507Z,138.21
2023-04-25T01:47:24.600Z,138.79
2023-04-25T01:48:24.629Z,136.65
2023-04-25T01:49:24.708Z,138.30
2023-04-25T01:50:24.733Z,135.89
2023-04-25T01:51:24.826Z,137.21
2023-04-25T01:52:24.853Z,139.75
2023-04-25T01:53:24.932Z,135.59
2023-04-25T01:54:24.971Z,137.21
2023-04-25T01:55:25.067Z,137.32
2023-04-25T01:56:25.116Z,136.77
2023-04-25T01:57:25.142Z,133.62
2023-04-25T01:58:25.163Z,133.49
2023-04-25T01:59:25.213Z,134.84
2023-04-25T02:00:25.252Z,133.43
2023-04-25T02:01:25.382Z,133.87
2023-04-25T02:02:25.399Z,133.19
2023-04-25T02:03:25.493Z,135.03
2023-04-25T02:04:25.528Z,131.66
2023-04-25T02:05:25.487Z,134.40
2023-04-25T02:06:25.535Z,131.98
2023-04-25T02:07:25.604Z,131.69
2023-04-25T02:08:25.643Z,130.33
2023-04-25T02:09:25.684Z,133.16
2023-04-25T02:10:25.767Z,130.31
2023-04-25T02:11:25.810Z,131.77
2023-04-25T02:12:25.868Z,132.58
2023-04-25T02:13:25.931Z,133.63
2023-04-25T02:14:25.935Z,131.55
2023-04-25T02:15:25.955Z,133.62
2023-04-25T02:16:26.010Z,133.70
2023-04-25T02:17:25.950Z,133.78
2023-04-25T02:18:25.949Z,129.89
2023-04-25T02:19:25.958Z,131.99
2023-04-25T02:20:25.953Z,130.95
2023-04-25T02:21:25.938Z,130.47
2023-04-25T02:22:25.931Z,128.86
2023-04-25T02:23:25.944Z,129.07
2023-04-25T02:24:25.920Z,128.39
2023-04-25T02:25:25.937Z,131.17
2023-04-25T02:26:25.928Z,127.96
2023-04-25T02:27:25.940Z,130.53
2023-04-25T02:28:25.983Z,130.10
2023-04-25T02:29:26.051Z,126.10
2023-04-25T02:30:26.089Z,126.40
2023-04-25T02:31:26.178Z,127.68
2023-04-25T02:32:26.258Z,127.55
2023-04-25T02:33:26.242Z,125.88
2023-04-25T02:34:26.293Z,129.98
2023-04-25T02:35:26.369Z,126.28
2023-04-25T02:36:26.434Z,126.25
2023-04-25T02:37:26.441Z,126.41
2023-04-25T02:38:26.438Z,126.74
2023-04-25T02:39:26.428Z,126.33
2023-04-25T02:40:26.434Z,124.41
2023-04-25T02:41:26.447Z,125.65
2023-04-25T02:42:26.422Z,125.79
2023-04-25T02:43:26.420Z,124.46
2023-04-25T02:44:26.431Z,125.84
2023-04-25T02:45:26.491Z,123.27
2023-04-25T02:46:38.229Z,117.44
2023-04-25T02:47:27.605Z,98.81
2023-04-25T02:48:26.561Z,71.37
2023-04-25T02:49:26.551Z,50.39
2023-04-25T02:50:26.555Z,35.63
2023-04-25T02:51:26.568Z,20.58
2023-04-25T02:52:26.569Z,23.84
2023-04-25T02:53:26.565Z,25.76
2023-04-25T02:54:26.567Z,25.00
2023-04-25T02:55:28.292Z,25.01
2023-04-25T02:56:26.574Z,24.30
2023-04-25T02:57:26.592Z,25.19
2023-04-25T02:58:26.601Z,25.00
2023-04-25T02:59:26.674Z,25.89
2023-04-25T03:00:26.904Z,25.27
2023-04-25T03:01:26.912Z,25.53
2023-04-25T03:02:26.964Z,24.79
2023-04-25T03:03:27.089Z,25.00
2023-04-25T03:04:27.128Z,24.37
2023-04-25T03:05:27.161Z,25.00
2023-04-25T03:06:27.224Z,25.00
2023-04-25T03:07:27.280Z,24.82
2023-04-25T03:08:27.343Z,25.02
2023-04-25T03:09:27.376Z,25.00
2023-04-25T03:10:27.436Z,25.00
2023-04-25T03:11:27.517Z,25.36
2023-04-25T03:12:27.558Z,25.00
2023-04-25T03:13:27.636Z,25.35
2023-04-25T03:14:27.663Z,25.00
2023-04-25T03:15:27.705Z,26.31
2023-04-25T03:16:27.826Z,24.85
2023-04-25T03:17:27.806Z,25.00
2023-04-25T03:18:27.798Z,25.12
2023-04-25T03:19:27.848Z,25.43
2023-04-25T03:20:27.882Z,25.25
2023-04-25T03:21:27.924Z,26.58
2023-04-25T03:22:27.974Z,25.58
2023-04-25T03:23:28.021Z,26.20
2023-04-25T03:24:28.038Z,25.79
2023-04-25T03:25:28.082Z,26.21
2023-04-25T03:26:28.117Z,25.00
2023-04-25T03:27:28.151Z,25.71
2023-04-25T03:28:28.175Z,26.02
2023-04-25T03:29:28.213Z,25.00
2023-04-25T03:30:28.281Z,25.30
2023-04-25T03:31:28.361Z,25.22
2023-04-25T03:32:28.445Z,26.37
2023-04-25T03:33:28.381Z,25.02
2023-04-25T03:34:28.416Z,26.29
2023-04-25T03:35:28.465Z,25.60
2023-04-25T03:36:28.501Z,25.43
2023-04-25T03:37:28.552Z,26.06
2023-04-25T03:38:28.578Z,25.86
2023-04-25T03:39:28.610Z,25.00
2023-04-25T03:40:28.663Z,26.17
2023-04-25T03:41:28.700Z,25.30
2023-04-25T03:42:28.740Z,24.93
2023-04-25T03:43:28.782Z,25.12
2023-04-25T03:44:28.830Z,25.21
2023-04-25T03:45:28.854Z,25.87
2023-04-25T03:46:28.962Z,27.87
2023-04-25T03:47:28.947Z,27.14
2023-04-25T03:48:29.018Z,25.21
2023-04-25T03:49:29.062Z,27.12
2023-04-25T03:50:29.095Z,27.67
2023-04-25T03:51:29.152Z,28.32
2023-04-25T03:52:29.250Z,28.09
2023-04-25T03:53:29.246Z,26.63
2023-04-25T03:54:29.296Z,26.65
2023-04-25T03:55:29.355Z,28.03
2023-04-25T03:56:29.384Z,26.94
2023-04-25T03:57:29.443Z,27.06
2023-04-25T03:58:29.476Z,26.21
2023-04-25T03:59:29.524Z,25.29
2023-04-25T04:00:29.570Z,25.76
2023-04-25T04:01:29.643Z,25.58
2023-04-25T04:02:29.817Z,26.64
2023-04-25T04:03:30.036Z,26.83
2023-04-25T04:04:30.065Z,25.76
2023-04-25T04:05:29.953Z,27.10
2023-04-25T04:06:29.912Z,26.98
2023-04-25T04:07:29.985Z,28.49
2023-04-25T04:08:30.025Z,28.52
2023-04-25T04:09:30.091Z,29.51
2023-04-25T04:10:30.143Z,30.97
2023-04-25T04:11:30.188Z,30.22
2023-04-25T04:12:30.262Z,30.94
2023-04-25T04:13:30.327Z,31.35
2023-04-25T04:14:30.385Z,32.20
2023-04-25T04:15:30.452Z,32.70
2023-04-25T04:16:30.930Z,32.04
2023-04-25T04:17:30.576Z,32.09
2023-04-25T04:18:30.571Z,32.46
2023-04-25T04:19:30.639Z,32.71
2023-04-25T04:20:30.696Z,31.75
2023-04-25T04:21:30.767Z,34.46
2023-04-25T04:22:30.834Z,34.57
2023-04-25T04:23:30.869Z,33.67
2023-04-25T04:24:30.926Z,32.10
2023-04-25T04:25:30.988Z,32.52
2023-04-25T04:26:31.028Z,32.60
2023-04-25T04:27:31.075Z,33.90
2023-04-25T04:28:31.157Z,31.79
2023-04-25T04:29:31.169Z,31.90
2023-04-25T04:30:31.187Z,31.80
2023-04-25T04:31:31.294Z,31.56
2023-04-25T04:32:31.260Z,32.83
2023-04-25T04:33:31.262Z,34.70
2023-04-25T04:34:31.292Z,32.49
2023-04-25T04:35:31.350Z,33.63
2023-04-25T04:36:31.371Z,35.67
2023-04-25T04:37:31.396Z,35.64
2023-04-25T04:38:31.409Z,34.33
2023-04-25T04:39:31.449Z,33.99
2023-04-25T04:40:31.491Z,33.41
2023-04-25T04:41:31.503Z,30.82
2023-04-25T04:42:31.549Z,30.35
2023-04-25T04:43:31.586Z,25.51
2023-04-25T04:44:31.616Z,26.37
2023-04-25T04:45:31.648Z,25.25
2023-04-25T04:46:31.770Z,25.11
2023-04-25T04:47:31.817Z,24.53
2023-04-25T04:48:31.788Z,25.95
2023-04-25T04:49:31.851Z,25.56
2023-04-25T04:50:31.903Z,24.30
2023-04-25T04:51:31.971Z,25.00
2023-04-25T04:52:32.056Z,25.13
2023-04-25T04:53:32.112Z,25.59
2023-04-25T04:54:32.175Z,25.24
2023-04-25T04:55:32.241Z,26.14
2023-04-25T04:56:32.315Z,25.03
2023-04-25T04:57:32.386Z,25.90
2023-04-25T04:58:32.439Z,25.90
2023-04-25T04:59:32.511Z,25.78
2023-04-25T05:00:32.607Z,26.03
2023-04-25T05:01:32.640Z,25.00
2023-04-25T05:02:32.811Z,25.51
2023-04-25T05:03:32.972Z,25.57
2023-04-25T05:04:32.933Z,25.39
2023-04-25T05:05:32.892Z,25.40
2023-04-25T05:06:32.928Z,25.29
2023-04-25T05:07:32.962Z,25.08
2023-04-25T05:08:32.962Z,25.09
2023-04-25T05:09:32.998Z,24.01
2023-04-25T05:10:33.022Z,25.33
2023-04-25T05:11:33.069Z,25.15
2023-04-25T05:12:34.065Z,25.01
2023-04-25T05:13:33.110Z,25.66
2023-04-25T05:14:33.145Z,25.82
2023-04-25T05:15:33.158Z,25.26
2023-04-25T05:16:33.260Z,25.47
2023-04-25T05:17:33.269Z,25.47
2023-04-25T05:18:33.263Z,25.24
2023-04-25T05:19:33.318Z,23.92
2023-04-25T05:20:33.326Z,23.88
2023-04-25T05:21:33.350Z,23.81
2023-04-25T05:22:33.402Z,25.54
2023-04-25T05:23:33.561Z,25.96
2023-04-25T05:24:33.434Z,27.97
2023-04-25T05:25:33.476Z,32.21
2023-04-25T05:26:33.511Z,39.37
2023-04-25T05:27:33.567Z,42.32
2023-04-25T05:28:33.564Z,44.14
2023-04-25T05:29:33.597Z,47.64
2023-04-25T05:30:33.618Z,55.51
2023-04-25T05:31:33.685Z,62.39
2023-04-25T05:32:33.712Z,65.28
2023-04-25T05:33:33.681Z,71.25
2023-04-25T05:34:33.721Z,73.44
2023-04-25T05:35:33.789Z,77.78
2023-04-25T05:36:33.765Z,83.73
2023-04-25T05:37:33.879Z,85.52
2023-04-25T05:38:34.958Z,90.38
2023-04-25T05:39:33.813Z,91.21
2023-04-25T05:40:33.898Z,94.21
2023-04-25T05:41:33.978Z,96.23
2023-04-25T05:42:34.025Z,101.12
2023-04-25T05:43:34.035Z,101.25
2023-04-25T05:44:34.094Z,101.72
2023-04-25T05:45:34.105Z,102.80
2023-04-25T05:46:34.308Z,103.66
2023-04-25T05:47:34.093Z,109.07
2023-04-25T05:48:34.295Z,111.30
2023-04-25T05:49:34.141Z,114.76
2023-04-25T05:50:34.276Z,117.35
2023-04-25T05:51:34.106Z,122.09
2023-04-25T05:52:34.110Z,126.22
2023-04-25T05:53:34.111Z,127.81
2023-04-25T05:54:34.101Z,133.53
2023-04-25T05:55:34.110Z,136.08
2023-04-25T05:56:34.126Z,143.21
2023-04-25T05:57:34.130Z,146.49
2023-04-25T05:58:34.147Z,150.44
2023-04-25T05:59:34.133Z,155.96
2023-04-25T06:00:34.147Z,159.18
2023-04-25T06:01:34.150Z,162.53
2023-04-25T06:02:34.372Z,165.78
2023-04-25T06:03:34.466Z,169.46
2023-04-25T06:04:34.802Z,172.47
2023-04-25T06:05:34.295Z,176.17
2023-04-25T06:06:34.234Z,179.14
2023-04-25T06:07:34.258Z,181.28
2023-04-25T06:08:34.248Z,185.03
2023-04-25T06:09:34.294Z,186.49
2023-04-25T06:10:34.335Z,186.65
2023-04-25T06:11:34.299Z,187.61
2023-04-25T06:12:34.343Z,189.13
2023-04-25T06:13:34.321Z,192.91
2023-04-25T06:14:34.299Z,197.40
2023-04-25T06:15:34.353Z,200.65
2023-04-25T06:16:34.354Z,203.09
2023-04-25T06:17:34.295Z,207.31
2023-04-25T06:18:34.313Z,207.59
2023-04-25T06:19:34.265Z,211.10
2023-04-25T06:20:34.285Z,211.67
2023-04-25T06:21:34.291Z,214.83
2023-04-25T06:22:34.258Z,216.82
2023-04-25T06:23:34.240Z,218.06
2023-04-25T06:24:34.250Z,219.47
2023-04-25T06:25:34.216Z,222.68
2023-04-25T06:26:34.264Z,222.84
2023-04-25T06:27:34.235Z,223.04
2023-04-25T06:28:34.216Z,226.54
2023-04-25T06:29:34.277Z,228.74
2023-04-25T06:30:34.241Z,230.18
2023-04-25T06:31:34.212Z,229.83
2023-04-25T06:32:34.216Z,230.53
2023-04-25T06:33:34.202Z,233.01
2023-04-25T06:34:34.187Z,232.79
2023-04-25T06:35:34.194Z,233.87
2023-04-25T06:36:34.283Z,235.58
2023-04-25T06:37:34.391Z,237.98
2023-04-25T06:38:34.390Z,238.85
2023-04-25T06:39:34.426Z,239.91
2023-04-25T06:40:34.496Z,240.29
2023-04-25T06:41:34.565Z,243.17
2023-04-25T06:42:34.588Z,243.25
2023-04-25T06:43:34.583Z,243.66
2023-04-25T06:44:34.600Z,244.54
2023-04-25T06:45:34.530Z,243.27
2023-04-25T06:46:34.823Z,236.37
2023-04-25T06:47:34.700Z,219.53
2023-04-25T06:48:34.512Z,198.06
2023-04-25T06:49:34.519Z,184.02
2023-04-25T06:50:34.525Z,165.11
2023-04-25T06:51:34.528Z,149.65
2023-04-25T06:52:34.574Z,133.14
2023-04-25T06:53:34.655Z,120.92
2023-04-25T06:54:34.553Z,110.93
2023-04-25T06:55:34.549Z,100.31
2023-04-25T06:56:34.563Z,87.03
2023-04-25T06:57:34.572Z,76.94
2023-04-25T06:58:34.594Z,65.09
2023-04-25T06:59:34.581Z,54.73
2023-04-25T07:00:34.677Z,48.94
2023-04-25T07:01:34.589Z,44.92
2023-04-25T07:02:34.680Z,37.43
2023-04-25T07:03:34.772Z,30.54
2023-04-25T07:04:34.789Z,28.71
2023-04-25T07:05:34.514Z,25.27
2023-04-25T07:06:34.496Z,26.84
2023-04-25T07:07:34.472Z,25.00
2023-04-25T07:08:34.491Z,25.00
2023-04-25T07:09:34.402Z,25.00
2023-04-25T07:10:34.472Z,26.40
2023-04-25T07:11:34.410Z,25.84
2023-04-25T07:12:34.440Z,26.03
2023-04-25T07:13:34.440Z,26.39
2023-04-25T07:14:34.546Z,27.21
2023-04-25T07:15:34.580Z,25.75
2023-04-25T07:16:34.664Z,25.52
2023-04-25T07:17:34.792Z,27.16
2023-04-25T07:18:34.675Z,27.23
2023-04-25T07:19:34.722Z,27.64
2023-04-25T07:20:34.688Z,28.94
2023-04-25T07:21:34.719Z,32.00
2023-04-25T07:22:34.701Z,34.49
2023-04-25T07:23:34.714Z,35.73
2023-04-25T07:24:34.715Z,34.88
2023-04-25T07:25:34.687Z,35.65
2023-04-25T07:26:34.703Z,38.93
2023-04-25T07:27:34.700Z,37.97
2023-04-25T07:28:34.708Z,36.81
2023-04-25T07:29:34.684Z,38.91
2023-04-25T07:30:34.688Z,35.47
2023-04-25T07:31:34.708Z,38.34
2023-04-25T07:32:34.782Z,38.46
2023-04-25T07:33:34.703Z,38.39
2023-04-25T07:34:34.727Z,38.66
2023-04-25T07:35:34.716Z,39.43
2023-04-25T07:36:34.689Z,39.47
2023-04-25T07:37:34.706Z,42.44
2023-04-25T07:38:34.739Z,46.69
2023-04-25T07:39:34.699Z,52.36
2023-04-25T07:40:34.716Z,61.82
2023-04-25T07:41:34.716Z,70.19
2023-04-25T07:42:34.713Z,70.42
2023-04-25T07:43:34.698Z,72.26
2023-04-25T07:44:34.681Z,76.49
2023-04-25T07:45:34.713Z,82.99
2023-04-25T07:46:34.712Z,95.71
2023-04-25T07:47:34.733Z,101.73
2023-04-25T07:48:34.715Z,104.38
2023-04-25T07:49:34.670Z,108.73
2023-04-25T07:50:34.667Z,108.88
2023-04-25T07:51:34.673Z,109.83
2023-04-25T07:52:34.667Z,112.29
2023-04-25T07:53:34.702Z,116.73
2023-04-25T07:54:34.668Z,123.61
2023-04-25T07:55:34.672Z,125.92
2023-04-25T07:56:45.447Z,127.99
2023-04-25T07:57:35.673Z,128.16
2023-04-25T07:58:34.661Z,128.79
2023-04-25T07:59:34.662Z,129.82
2023-04-25T08:00:34.670Z,132.48
2023-04-25T08:01:34.639Z,134.71
2023-04-25T08:02:34.732Z,135.52
2023-04-25T08:03:34.891Z,136.72
2023-04-25T08:04:34.848Z,138.56
2023-04-25T08:05:34.702Z,138.97
2023-04-25T08:06:34.805Z,139.71
2023-04-25T08:07:34.622Z,139.04
2023-04-25T08:08:34.615Z,139.12
2023-04-25T08:09:34.588Z,139.16
2023-04-25T08:10:34.586Z,139.21
2023-04-25T08:11:34.601Z,139.49
2023-04-25T08:12:34.568Z,139.85
2023-04-25T08:13:34.584Z,132.12
2023-04-25T08:14:34.621Z,115.93
2023-04-25T08:15:34.728Z,101.95
2023-04-25T08:16:34.689Z,91.62
2023-04-25T08:17:34.772Z,80.19
2023-04-25T08:18:34.590Z,70.78
2023-04-25T08:19:34.631Z,60.86
2023-04-25T08:20:34.629Z,52.63
2023-04-25T08:21:34.675Z,44.20
2023-04-25T08:22:34.641Z,35.31
2023-04-25T08:23:34.647Z,30.08
2023-04-25T08:24:35.672Z,25.00
2023-04-25T08:25:34.655Z,24.87
2023-04-25T08:26:35.161Z,25.09
2023-04-25T08:27:34.672Z,25.00
2023-04-25T08:28:34.800Z,25.00
2023-04-25T08:29:34.813Z,24.76
2023-04-25T08:30:34.856Z,25.00
2023-04-25T08:31:34.955Z,26.57
2023-04-25T08:32:34.987Z,26.71
2023-04-25T08:33:34.924Z,27.75
2023-04-25T08:34:34.924Z,30.27
2023-04-25T08:35:34.975Z,35.17
2023-04-25T08:36:39.378Z,47.43
2023-04-25T08:37:35.933Z,27.38
2023-04-25T08:38:34.913Z,30.97
2023-04-25T08:39:34.959Z,39.88
2023-04-25T08:40:34.898Z,54.76
2023-04-25T08:41:34.972Z,75.67
2023-04-25T08:42:34.923Z,82.29
2023-04-25T08:43:34.947Z,87.61
2023-04-25T08:44:34.992Z,95.69
2023-04-25T08:45:34.921Z,101.52
2023-04-25T08:46:34.918Z,104.79
2023-04-25T08:47:34.993Z,109.29
2023-04-25T08:48:34.952Z,112.85
2023-04-25T08:49:34.958Z,116.82
2023-04-25T08:50:34.892Z,120.32
2023-04-25T08:51:34.886Z,125.18
2023-04-25T08:52:34.891Z,128.93
2023-04-25T08:53:36.203Z,131.13
2023-04-25T08:54:37.227Z,132.63
2023-04-25T08:55:34.845Z,135.14
2023-04-25T08:56:34.849Z,138.04
2023-04-25T08:57:34.858Z,140.83
2023-04-25T08:58:34.968Z,143.93
2023-04-25T08:59:36.570Z,145.82
2023-04-25T09:00:34.841Z,145.90
2023-04-25T09:01:34.944Z,146.50
2023-04-25T09:02:34.927Z,147.75
2023-04-25T09:03:35.164Z,151.17
2023-04-25T09:04:34.838Z,155.90
2023-04-25T09:05:34.807Z,157.97
2023-04-25T09:06:34.790Z,159.13
2023-04-25T09:07:34.817Z,158.09
2023-04-25T09:08:34.793Z,160.24
2023-04-25T09:09:34.773Z,160.39
2023-04-25T09:10:34.782Z,161.11
2023-04-25T09:11:34.772Z,161.22
2023-04-25T09:12:34.779Z,160.01
2023-04-25T09:13:34.756Z,157.89
2023-04-25T09:14:34.760Z,156.60
2023-04-25T09:15:34.745Z,157.17
2023-04-25T09:16:36.596Z,155.03
2023-04-25T09:17:34.778Z,155.05
2023-04-25T09:18:34.773Z,154.51
2023-04-25T09:19:39.519Z,154.77
2023-04-25T09:20:40.317Z,153.75
2023-04-25T09:21:35.712Z,155.07
2023-04-25T09:22:35.310Z,154.89
2023-04-25T09:23:34.688Z,153.23
2023-04-25T09:24:34.727Z,153.74
2023-04-25T09:25:34.704Z,153.63
2023-04-25T09:26:34.686Z,154.39
2023-04-25T09:27:34.662Z,153.47
2023-04-25T09:28:34.648Z,154.38
2023-04-25T09:29:34.677Z,157.45
2023-04-25T09:30:34.630Z,159.34
2023-04-25T09:31:34.673Z,159.45
2023-04-25T09:32:34.799Z,160.07
2023-04-25T09:33:34.612Z,161.43
2023-04-25T09:34:34.614Z,163.86
2023-04-25T09:35:34.616Z,167.49
2023-04-25T09:36:34.833Z,168.66
2023-04-25T09:37:34.609Z,170.50
2023-04-25T09:38:34.578Z,172.21
2023-04-25T09:39:34.658Z,172.17
2023-04-25T09:40:34.684Z,173.01
2023-04-25T09:41:34.690Z,174.65
2023-04-25T09:42:34.804Z,175.75
2023-04-25T09:43:34.858Z,174.19
2023-04-25T09:44:34.966Z,176.34
2023-04-25T09:45:34.951Z,173.66
2023-04-25T09:46:35.037Z,168.29
2023-04-25T09:47:35.138Z,161.63
2023-04-25T09:48:35.116Z,150.64
2023-04-25T09:49:35.157Z,122.98
2023-04-25T09:50:35.210Z,104.65
2023-04-25T09:51:35.246Z,90.12
2023-04-25T09:52:35.306Z,69.03
2023-04-25T09:53:35.354Z,54.55
2023-04-25T09:54:35.300Z,43.67
2023-04-25T09:55:35.310Z,32.31
2023-04-25T09:56:35.410Z,24.06
2023-04-25T09:57:35.372Z,23.42
2023-04-25T09:58:35.470Z,24.86
2023-04-25T09:59:35.432Z,25.71
2023-04-25T10:00:35.473Z,25.00
2023-04-25T10:01:35.533Z,25.00
2023-04-25T10:02:35.651Z,24.58
2023-04-25T10:03:35.907Z,25.16
2023-04-25T10:04:35.625Z,25.00
2023-04-25T10:05:35.580Z,25.00
2023-04-25T10:06:35.630Z,25.21
2023-04-25T10:07:35.691Z,25.00
2023-04-25T10:08:35.761Z,26.39
2023-04-25T10:09:35.745Z,25.10
2023-04-25T10:10:35.773Z,23.98
2023-04-25T10:11:35.819Z,26.71
2023-04-25T10:12:35.861Z,24.11
2023-04-25T10:13:35.933Z,24.97
2023-04-25T10:14:36.011Z,27.01
2023-04-25T10:15:37.557Z,26.30
2023-04-25T10:16:36.033Z,25.39
2023-04-25T10:17:36.096Z,26.51
2023-04-25T10:18:36.076Z,29.13
2023-04-25T10:19:36.073Z,30.70
2023-04-25T10:20:36.109Z,26.47
2023-04-25T10:21:36.084Z,26.75
2023-04-25T10:22:36.087Z,27.02
2023-04-25T10:23:36.168Z,27.21
2023-04-25T10:24:36.177Z,29.00
2023-04-25T10:25:36.155Z,30.42
2023-04-25T10:26:36.150Z,32.09
2023-04-25T10:27:36.181Z,35.47
2023-04-25T10:28:36.214Z,35.14
2023-04-25T10:29:36.260Z,35.80
2023-04-25T10:30:36.267Z,38.43
2023-04-25T10:31:36.353Z,38.46
2023-04-25T10:32:36.368Z,39.81
2023-04-25T10:33:36.431Z,39.64
2023-04-25T10:34:36.484Z,42.23
2023-04-25T10:35:36.535Z,42.97
2023-04-25T10:36:36.590Z,41.01
2023-04-25T10:37:37.848Z,43.93
2023-04-25T10:38:36.682Z,46.21
2023-04-25T10:39:36.724Z,48.25
2023-04-25T10:40:36.732Z,45.66
2023-04-25T10:41:36.761Z,47.18
2023-04-25T10:42:36.769Z,46.00
2023-04-25T10:43:36.720Z,45.27
2023-04-25T10:44:36.740Z,45.86
2023-04-25T10:45:36.719Z,48.93
2023-04-25T10:46:36.792Z,49.89
2023-04-25T10:47:36.736Z,50.79
2023-04-25T10:48:36.776Z,52.78
2023-04-25T10:49:36.777Z,54.02
2023-04-25T10:50:36.784Z,54.15
2023-04-25T10:51:54.533Z,54.51
2023-04-25T10:52:37.769Z,54.10
2023-04-25T10:53:36.789Z,54.47
2023-04-25T10:54:36.762Z,54.12
2023-04-25T10:55:36.781Z,54.85
2023-04-25T10:56:36.754Z,56.01
2023-04-25T10:57:36.764Z,58.16
2023-04-25T10:58:36.765Z,62.27
2023-04-25T10:59:36.791Z,64.89
2023-04-25T11:00:53.125Z,65.50
2023-04-25T11:01:37.822Z,65.54
2023-04-25T11:02:36.925Z,64.37
2023-04-25T11:03:36.884Z,63.03
2023-04-25T11:04:37.705Z,64.66
2023-04-25T11:05:50.979Z,63.95
2023-04-25T11:06:37.981Z,65.53
2023-04-25T11:07:36.954Z,65.74
2023-04-25T11:08:36.953Z,67.02
2023-04-25T11:09:37.069Z,65.72
2023-04-25T11:10:36.970Z,66.56
2023-04-25T11:11:36.955Z,68.22
2023-04-25T11:12:36.958Z,68.92
2023-04-25T11:13:36.988Z,73.15
2023-04-25T11:14:36.990Z,65.78
2023-04-25T11:15:37.017Z,66.50
2023-04-25T11:16:37.107Z,65.73
2023-04-25T11:17:37.143Z,65.90
2023-04-25T11:18:36.992Z,65.68
2023-04-25T11:19:36.968Z,65.03
2023-04-25T11:20:36.986Z,63.74
2023-04-25T11:21:36.980Z,61.38
2023-04-25T11:22:36.990Z,61.47
2023-04-25T11:23:36.997Z,58.41
2023-04-25T11:24:37.003Z,56.77
2023-04-25T11:25:38.648Z,54.00
2023-04-25T11:26:37.022Z,54.15
2023-04-25T11:27:37.022Z,50.73
2023-04-25T11:28:37.074Z,47.79
2023-04-25T11:29:37.034Z,42.68
2023-04-25T11:30:37.042Z,39.62
2023-04-25T11:31:37.152Z,39.82
2023-04-25T11:32:37.167Z,38.05
2023-04-25T11:33:37.068Z,37.26
2023-04-25T11:34:37.082Z,39.61
2023-04-25T11:35:37.076Z,38.52
2023-04-25T11:36:37.083Z,39.77
2023-04-25T11:37:37.087Z,40.50
2023-04-25T11:38:37.094Z,39.31
2023-04-25T11:39:37.114Z,36.54
2023-04-25T11:40:37.139Z,35.28
2023-04-25T11:41:37.126Z,32.32
2023-04-25T11:42:37.134Z,28.81
2023-04-25T11:43:37.145Z,26.05
2023-04-25T11:44:37.195Z,25.00
2023-04-25T11:45:37.211Z,25.86
2023-04-25T11:46:37.213Z,25.00
2023-04-25T11:47:37.253Z,24.71
2023-04-25T11:48:37.221Z,25.41
2023-04-25T11:49:37.326Z,24.99
2023-04-25T11:50:37.341Z,25.00
2023-04-25T11:51:37.439Z,25.00
2023-04-25T11:52:37.445Z,25.44
2023-04-25T11:53:37.494Z,24.59
2023-04-25T11:54:37.525Z,25.00
2023-04-25T11:55:37.567Z,25.23
2023-04-25T11:56:37.587Z,25.01
2023-04-25T11:57:37.629Z,25.51
2023-04-25T11:58:37.700Z,27.30
2023-04-25T11:59:37.685Z,31.56
2023-04-25T12:00:37.701Z,45.34
2023-04-25T12:01:37.827Z,58.58
2023-04-25T12:02:37.937Z,69.95
2023-04-25T12:03:38.125Z,79.35
2023-04-25T12:04:38.284Z,88.41
2023-04-25T12:05:38.130Z,94.87
2023-04-25T12:06:38.055Z,100.18
2023-04-25T12:07:38.053Z,102.38
2023-04-25T12:08:38.100Z,104.52
2023-04-25T12:09:38.112Z,108.50
2023-04-25T12:10:38.121Z,108.63
2023-04-25T12:11:38.859Z,109.65
2023-04-25T12:12:38.111Z,112.69
2023-04-25T12:13:38.128Z,119.37
2023-04-25T12:14:38.115Z,129.39
2023-04-25T12:15:38.172Z,133.00
2023-04-25T12:16:38.154Z,133.99
2023-04-25T12:17:38.134Z,137.37
2023-04-25T12:18:38.129Z,143.38
2023-04-25T12:19:38.191Z,146.95
2023-04-25T12:20:38.329Z,151.83
2023-04-25T12:21:46.886Z,156.37
2023-04-25T12:22:39.234Z,156.53
2023-04-25T12:23:38.221Z,157.50
2023-04-25T12:24:39.518Z,160.11
2023-04-25T12:25:38.257Z,165.07
2023-04-25T12:26:38.216Z,172.82
2023-04-25T12:27:38.231Z,176.27
2023-04-25T12:28:38.226Z,178.89
2023-04-25T12:29:48.610Z,181.52
2023-04-25T12:30:40.421Z,181.61
2023-04-25T12:31:38.232Z,181.68
2023-04-25T12:32:38.247Z,182.33
2023-04-25T12:33:38.247Z,184.15
2023-04-25T12:34:38.226Z,187.00
2023-04-25T12:35:38.240Z,191.95
2023-04-25T12:36:38.299Z,193.61
2023-04-25T12:37:38.204Z,194.04
2023-04-25T12:38:38.228Z,195.27
2023-04-25T12:39:38.214Z,196.96
2023-04-25T12:40:38.224Z,197.53